• Join FlightAware (Why Join?)
  • Login
  • US Flag 
03:01PM EST


 

Airport Tracker/Info


-or-


 

Live Flight TrackerFlight Track Log ✈ FDX739 ✈ 21-Apr-2013 ✈ KMEM - KLCK

Flight Track Log - Related Links

Times and Time Zones

All times are in EDT time to prevent confusion due to time zone crossing. See the FDX739 flight status page for this flight to view local times or setup timezone preferences in your user account.

Time Position Orientation Groundspeed Altitude Reporting Facility
EDT Latitude Longitude Course Direction KTS MPH feet Rate Location/Type
04:43PM 35.0500 -89.9667 360° North 140 161 1,700  Level KMEM
04:43PM 35.0833 -89.9667 360° North 164 189 2,700 2,640 Climbing KMEM
04:44PM 35.1500 -89.9500 12° North 269 310 6,000 2,880 Climbing KMEM
04:45PM 35.2333 -89.9333 North 279 321 8,900 1,380 Climbing KMEM
04:46PM 35.2833 -89.8667 47° Northeast 290 334 9,000 1,140 Climbing KMEM
04:48PM 35.3856 -89.7814 34° Northeast 306 352 11,800 2,160 Climbing Memphis Center
04:49PM 35.4583 -89.7122 38° Northeast 314 361 14,300 3,000 Climbing Memphis Center
04:50PM 35.5392 -89.6272 41° Northeast 358 412 17,800 3,180 Climbing Memphis Center
04:51PM 35.6242 -89.5447 38° Northeast 381 438 20,700 2,700 Climbing Memphis Center
04:52PM 35.7133 -89.4622 37° Northeast 397 457 23,300 2,100 Climbing Memphis Center
04:53PM 35.8211 -89.3867 30° Northeast 407 468 25,000 1,920 Climbing Memphis Center
04:54PM 35.9331 -89.3033 31° Northeast 444 511 27,200 -60 Climbing Memphis Center
05:00PM 36.6460 -88.7640 31° Northeast 33,000 -120 Climbing FlightAware
05:01PM 36.7210 -88.7050 32° Northeast 33,000 -300 Level FlightAware
05:02PM 36.8080 -88.6380 32° Northeast 33,000 -360 Level FlightAware
05:02PM 36.8700 -88.5900 32° Northeast 33,000 -360 Level FlightAware
05:03PM 36.9370 -88.4940 49° Northeast 33,000 -360 Level FlightAware
05:04PM 36.9990 -88.3860 54° Northeast 33,000 -360 Level FlightAware
05:05PM 37.0600 -88.2810 54° Northeast 33,000 -360 Level FlightAware
05:06PM 37.1500 -88.1240 54° Northeast 33,000 -360 Level FlightAware
05:06PM 37.2000 -88.0360 54° Northeast 33,000 -360 Level FlightAware
05:07PM 37.2530 -87.9430 54° Northeast 33,000 -420 Level FlightAware
05:08PM 37.3120 -87.8400 54° Northeast 33,000 -420 Level FlightAware
05:08PM 37.3640 -87.7490 54° Northeast 33,000 -420 Level FlightAware
05:09PM 37.4170 -87.6550 55° Northeast 33,000 -420 Level FlightAware
05:10PM 37.4770 -87.5490 54° Northeast 33,000 -420 Level FlightAware
05:10PM 37.5300 -87.4560 54° Northeast 33,000 -480 Level FlightAware
05:11PM 37.5810 -87.3640 55° Northeast 33,000 -480 Level FlightAware
05:12PM 37.6420 -87.2560 54° Northeast 33,000 -480 Level FlightAware
05:13PM 37.6990 -87.1540 55° Northeast 33,000 -540 Level FlightAware
05:13PM 37.7520 -87.0590 55° Northeast 33,000 -540 Level FlightAware
05:14PM 37.8040 -86.9650 55° Northeast 33,000 -540 Level FlightAware
05:15PM 37.8550 -86.8730 55° Northeast 33,000 -600 Level FlightAware
05:15PM 37.9160 -86.7630 55° Northeast 33,000 -600 Level FlightAware
05:16PM 37.9740 -86.6570 55° Northeast 33,000 -660 Level FlightAware
05:17PM 38.0270 -86.5600 55° Northeast 33,000 -660 Level FlightAware
05:17PM 38.0770 -86.4690 55° Northeast 33,000 -720 Level FlightAware
05:18PM 38.1360 -86.3600 55° Northeast 33,000 -720 Level FlightAware
05:19PM 38.1890 -86.2630 55° Northeast 33,000 -780 Level FlightAware
05:20PM 38.2480 -86.1540 55° Northeast 32,300 -840 Descending FlightAware
05:20PM 38.2900 -86.0750 56° Northeast 31,700 -840 Descending FlightAware
05:21PM 38.3500 -85.9640 55° Northeast 31,000 -840 Descending FlightAware
05:22PM 38.4080 -85.8580 55° Northeast 31,000 -780 Level FlightAware
05:22PM 38.4600 -85.7600 56° Northeast 31,000 -900 Level FlightAware
05:23PM 38.5190 -85.6490 56° Northeast 31,000 -960 Level FlightAware
05:24PM 38.5710 -85.5490 56° Northeast 31,000 -1,080 Level FlightAware
05:25PM 38.6820 -85.3420 55° Northeast 31,000 -1,200 Level FlightAware
05:26PM 38.7270 -85.2570 56° Northeast 30,800 -1,560 Descending FlightAware
05:27PM 38.7920 -85.1330 56° Northeast 30,000 -1,740 Descending FlightAware
05:27PM 38.8440 -85.0330 56° Northeast 29,300 -1,980 Descending FlightAware
05:28PM 38.9020 -84.9220 56° Northeast 28,000 -2,220 Descending FlightAware
05:29PM 38.9530 -84.8220 57° Northeast 26,100 -2,460 Descending FlightAware
05:30PM 39.0033 -84.7258 57° Northeast 493 567 24,400 -1,800 Descending Indianapolis Center
05:31PM 39.0778 -84.5864 55° Northeast 473 544 22,800 -1,320 Descending Indianapolis Center
05:36PM 39.4530 -83.7820 55° Northeast 14,200 -1,320 Descending FlightAware
05:37PM 39.4870 -83.6900 64° Northeast 12,100 -960 Descending FlightAware
05:38PM 39.5120 -83.6250 63° Northeast 10,800 -420 Descending FlightAware
05:39PM 39.5540 -83.5120 64° Northeast 10,500 60 Descending FlightAware
05:39PM 39.5830 -83.4370 63° Northeast 10,600 360 Climbing FlightAware
05:40PM 39.6131 -83.3778 63° Northeast 350 403 11,000 -1,080 Climbing Indianapolis Center
05:41PM 39.6500 -83.2844 63° Northeast 285 328 8,900 -2,100 Descending Indianapolis Center
05:42PM 39.6775 -83.1917 69° East 279 321 6,700 -2,400 Descending Indianapolis Center
05:43PM 39.7011 -83.0928 73° East 244 281 3,800 -1,920 Descending Indianapolis Center
05:44PM 39.7344 -83.0342 54° Northeast 193 222 2,800 -960 Descending Indianapolis Center
05:45PM 39.7667 -82.9919 45° Northeast 139 160 1,900 -840 Descending Indianapolis Center
05:46PM 39.7919 -82.9594 45° Northeast 114 131 1,200 -480 Descending Indianapolis Center
05:47PM 39.8128 -82.9303 47° Northeast 139 160 1,000 -240 Descending Indianapolis Center
05:49PM 39.8138 -82.9278 90° East  Level Estimated